Time;durP1;ratioP1;P1;durP2;ratioP2;P2;SDS_P1;SDS_P2;PMS_P1;PMS_P2;Temp;Humidity;BMP_temperature;BMP_pressure;BME280_temperature;BME280_humidity;BME280_pressure;Samples;Min_cycle;Max_cycle;Signal;HPM_P1;HPM_P2
2022/05/22 00:01:29;;;;;;;19.67;15.03;;;;;;;;;;4942898;28;20518;-43
2022/05/22 00:03:55;;;;;;;22.63;14.40;;;;;;;;;;4942550;28;20942;-42
2022/05/22 00:06:21;;;;;;;28.77;16.07;;;;;;;;;;4941874;28;20182;-43
2022/05/22 00:08:47;;;;;;;18.33;14.60;;;;;;;;;;4943894;28;20179;-43
2022/05/22 00:11:13;;;;;;;21.83;15.40;;;;;;;;;;4935511;28;20178;-43
2022/05/22 00:13:39;;;;;;;24.27;16.67;;;;;;;;;;4941804;28;20193;-43
2022/05/22 00:18:51;;;;;;;16.97;13.97;;;;;;;;;;4941762;28;20197;-42
2022/05/22 00:21:17;;;;;;;19.77;14.43;;;;;;;;;;4939568;28;20253;-42
2022/05/22 00:23:43;;;;;;;17.93;14.40;;;;;;;;;;4941000;28;20178;-43
2022/05/22 00:26:10;;;;;;;21.13;16.43;;;;;;;;;;4940826;28;20179;-42
2022/05/22 00:28:36;;;;;;;17.87;13.83;;;;;;;;;;4943306;28;20186;-43
2022/05/22 00:31:02;;;;;;;20.00;15.80;;;;;;;;;;4939937;28;20187;-42
2022/05/22 00:33:28;;;;;;;18.97;16.10;;;;;;;;;;4942056;28;20179;-43
2022/05/22 00:35:55;;;;;;;18.47;16.00;;;;;;;;;;4940292;28;20257;-43
2022/05/22 00:38:21;;;;;;;21.27;15.97;;;;;;;;;;4944118;28;20194;-43
2022/05/22 00:40:47;;;;;;;17.20;15.33;;;;;;;;;;4940320;28;21064;-42
2022/05/22 00:43:27;;;;;;;22.27;16.17;;;;;;;;;;4941941;28;20202;-43
2022/05/22 00:45:53;;;;;;;22.70;17.27;;;;;;;;;;4942065;28;20175;-43
2022/05/22 00:48:19;;;;;;;25.57;16.63;;;;;;;;;;4937289;28;20289;-41
2022/05/22 00:50:45;;;;;;;19.57;15.33;;;;;;;;;;4939019;28;20191;-43
2022/05/22 00:53:11;;;;;;;19.63;15.37;;;;;;;;;;4942290;28;20183;-43
2022/05/22 00:55:37;;;;;;;22.37;16.57;;;;;;;;;;4937685;28;20191;-43
2022/05/22 00:58:10;;;;;;;18.00;15.37;;;;;;;;;;4940489;28;21248;-43
2022/05/22 01:00:36;;;;;;;22.27;15.73;;;;;;;;;;4943029;28;20211;-42
2022/05/22 01:05:50;;;;;;;21.50;15.17;;;;;;;;;;4937945;28;20190;-43
2022/05/22 01:08:16;;;;;;;18.77;14.03;;;;;;;;;;4942742;28;20725;-43
2022/05/22 01:10:42;;;;;;;21.80;13.87;;;;;;;;;;4943242;28;20179;-43
2022/05/22 01:13:08;;;;;;;19.83;14.50;;;;;;;;;;4940991;28;20236;-43
2022/05/22 01:15:35;;;;;;;14.93;13.13;;;;;;;;;;4938468;28;20628;-42
2022/05/22 01:18:01;;;;;;;17.07;13.57;;;;;;;;;;4938038;28;20513;-43
2022/05/22 01:20:27;;;;;;;17.03;13.20;;;;;;;;;;4935478;28;20679;-43
2022/05/22 01:22:53;;;;;;;20.60;12.77;;;;;;;;;;4937634;28;20179;-43
2022/05/22 01:25:19;;;;;;;18.67;12.60;;;;;;;;;;4937480;28;20241;-43
2022/05/22 01:27:45;;;;;;;19.03;12.60;;;;;;;;;;4937007;28;20171;-42
2022/05/22 01:30:11;;;;;;;16.30;12.37;;;;;;;;;;4936617;28;20866;-43
2022/05/22 01:32:39;;;;;;;18.80;12.53;;;;;;;;;;4940223;28;20185;-43
2022/05/22 01:35:05;;;;;;;17.43;13.20;;;;;;;;;;4940042;28;20179;-43
2022/05/22 01:37:31;;;;;;;19.30;13.50;;;;;;;;;;4938774;28;20289;-42
2022/05/22 01:39:57;;;;;;;17.57;13.17;;;;;;;;;;4942161;28;21179;-43
2022/05/22 01:42:24;;;;;;;18.07;14.13;;;;;;;;;;4935421;28;20694;-43
2022/05/22 01:44:50;;;;;;;16.33;12.70;;;;;;;;;;4936030;28;20600;-43
2022/05/22 01:47:16;;;;;;;18.13;13.90;;;;;;;;;;4936649;28;20213;-43
2022/05/22 01:49:42;;;;;;;15.73;12.60;;;;;;;;;;4934120;28;20190;-43
2022/05/22 01:52:08;;;;;;;21.83;14.40;;;;;;;;;;4933840;28;20179;-43
2022/05/22 01:54:34;;;;;;;21.70;15.17;;;;;;;;;;4937309;28;20193;-43
2022/05/22 01:57:00;;;;;;;17.37;14.10;;;;;;;;;;4934333;28;20193;-43
2022/05/22 01:59:27;;;;;;;19.80;14.20;;;;;;;;;;4940775;28;20182;-43
2022/05/22 02:01:53;;;;;;;22.33;14.87;;;;;;;;;;4946134;28;20178;-43
2022/05/22 02:04:19;;;;;;;21.33;14.23;;;;;;;;;;4948264;28;20722;-43
2022/05/22 02:09:30;;;;;;;23.20;15.87;;;;;;;;;;4941562;28;20629;-43
2022/05/22 02:11:56;;;;;;;19.57;15.27;;;;;;;;;;4945609;28;20171;-42
2022/05/22 02:14:22;;;;;;;25.17;15.83;;;;;;;;;;4939253;28;20183;-41
2022/05/22 02:16:49;;;;;;;19.40;16.43;;;;;;;;;;4942816;28;20179;-42
2022/05/22 02:19:15;;;;;;;25.53;17.87;;;;;;;;;;4943922;28;20179;-42
2022/05/22 02:21:41;;;;;;;24.00;17.23;;;;;;;;;;4938505;28;20258;-42
2022/05/22 02:24:07;;;;;;;23.07;16.73;;;;;;;;;;4941767;28;20183;-43
2022/05/22 02:26:33;;;;;;;23.03;17.47;;;;;;;;;;4942695;28;20183;-43
2022/05/22 02:28:59;;;;;;;27.37;19.07;;;;;;;;;;4938797;28;20179;-43
2022/05/22 02:31:25;;;;;;;22.80;19.10;;;;;;;;;;4937398;28;20605;-42
2022/05/22 02:33:51;;;;;;;18.80;16.17;;;;;;;;;;4942827;28;20198;-42
2022/05/22 02:36:17;;;;;;;25.03;18.63;;;;;;;;;;4942925;28;20326;-42
2022/05/22 02:38:43;;;;;;;26.57;19.60;;;;;;;;;;4943561;28;20187;-42
2022/05/22 02:41:10;;;;;;;33.47;19.13;;;;;;;;;;4939985;28;20309;-43
2022/05/22 02:43:37;;;;;;;24.93;20.70;;;;;;;;;;4945696;28;20825;-43
2022/05/22 02:46:07;;;;;;;27.03;18.87;;;;;;;;;;4946245;28;20433;-43
2022/05/22 02:48:33;;;;;;;24.77;20.50;;;;;;;;;;4941278;28;20703;-42
2022/05/22 02:50:59;;;;;;;26.07;19.90;;;;;;;;;;4940138;28;20183;-43
2022/05/22 02:53:25;;;;;;;30.10;21.10;;;;;;;;;;4940086;28;20186;-43
2022/05/22 02:55:52;;;;;;;28.27;21.37;;;;;;;;;;4943297;28;20187;-43
2022/05/22 02:58:18;;;;;;;26.73;19.13;;;;;;;;;;4940462;28;21028;-43
2022/05/22 03:00:44;;;;;;;24.20;20.33;;;;;;;;;;4941633;28;20206;-43
2022/05/22 03:03:10;;;;;;;21.10;17.60;;;;;;;;;;4943166;28;20731;-43
2022/05/22 03:08:22;;;;;;;23.37;18.27;;;;;;;;;;4942789;28;20983;-43
2022/05/22 03:10:48;;;;;;;32.40;21.97;;;;;;;;;;4943883;28;20190;-43
2022/05/22 03:13:15;;;;;;;23.03;18.23;;;;;;;;;;4947907;28;20179;-42
2022/05/22 03:15:41;;;;;;;20.50;16.67;;;;;;;;;;4945351;28;21043;-43
2022/05/22 03:18:07;;;;;;;23.33;17.03;;;;;;;;;;4940897;28;20183;-43
2022/05/22 03:20:33;;;;;;;21.63;13.33;;;;;;;;;;4945348;28;20206;-43
2022/05/22 03:23:00;;;;;;;18.23;12.60;;;;;;;;;;4944496;28;20705;-43
2022/05/22 03:25:27;;;;;;;15.37;10.40;;;;;;;;;;4940463;28;20269;-43
2022/05/22 03:27:53;;;;;;;12.50;8.93;;;;;;;;;;4942895;28;20183;-43
2022/05/22 03:30:19;;;;;;;15.83;8.50;;;;;;;;;;4944259;28;20182;-43
2022/05/22 03:32:45;;;;;;;14.53;8.80;;;;;;;;;;4941983;28;20190;-42
2022/05/22 03:35:11;;;;;;;12.67;9.27;;;;;;;;;;4939886;28;20249;-43
2022/05/22 03:37:38;;;;;;;13.77;9.97;;;;;;;;;;4941433;28;20257;-43
2022/05/22 03:40:04;;;;;;;13.73;9.70;;;;;;;;;;4946136;28;20245;-42
2022/05/22 03:42:30;;;;;;;12.37;7.60;;;;;;;;;;4941399;28;20187;-43
2022/05/22 03:44:56;;;;;;;9.83;6.73;;;;;;;;;;4935885;28;20187;-43
2022/05/22 03:47:23;;;;;;;8.67;6.37;;;;;;;;;;4940815;28;20293;-43
2022/05/22 03:49:49;;;;;;;12.07;6.27;;;;;;;;;;4942018;28;20294;-43
2022/05/22 03:52:15;;;;;;;10.67;6.13;;;;;;;;;;4938944;28;20930;-43
2022/05/22 03:54:41;;;;;;;9.87;5.67;;;;;;;;;;4943582;28;20194;-43
2022/05/22 03:57:09;;;;;;;6.87;5.33;;;;;;;;;;4939631;28;20186;-43
2022/05/22 03:59:37;;;;;;;10.00;4.87;;;;;;;;;;4942777;28;20175;-43
2022/05/22 04:02:03;;;;;;;9.53;4.73;;;;;;;;;;4944281;28;20167;-43
2022/05/22 04:04:29;;;;;;;8.60;4.70;;;;;;;;;;4940953;28;20257;-43
2022/05/22 04:06:56;;;;;;;6.57;4.60;;;;;;;;;;4942986;28;20186;-43
2022/05/22 04:09:22;;;;;;;7.10;4.67;;;;;;;;;;4942929;28;20262;-42
2022/05/22 04:11:48;;;;;;;10.70;5.00;;;;;;;;;;4941741;28;20187;-43
2022/05/22 04:14:18;;;;;;;9.90;5.07;;;;;;;;;;4943040;28;20190;-43
2022/05/22 04:16:44;;;;;;;6.70;4.40;;;;;;;;;;4940017;28;20833;-43
2022/05/22 04:19:10;;;;;;;8.17;4.73;;;;;;;;;;4938778;28;20175;-43
2022/05/22 04:21:36;;;;;;;7.00;4.17;;;;;;;;;;4939933;28;20683;-42
2022/05/22 04:26:47;;;;;;;7.37;4.60;;;;;;;;;;4939068;28;20193;-43
2022/05/22 04:29:13;;;;;;;7.83;4.40;;;;;;;;;;4940127;28;20246;-43
2022/05/22 04:31:39;;;;;;;7.50;4.33;;;;;;;;;;4953880;28;20190;-43
2022/05/22 04:34:05;;;;;;;8.27;4.53;;;;;;;;;;4938520;28;20226;-43
2022/05/22 04:36:31;;;;;;;9.13;4.27;;;;;;;;;;4937993;28;20170;-43
2022/05/22 04:38:58;;;;;;;5.90;4.40;;;;;;;;;;4941975;28;20183;-43
2022/05/22 04:41:24;;;;;;;8.60;4.97;;;;;;;;;;4941879;28;20202;-42
2022/05/22 04:43:50;;;;;;;7.67;4.53;;;;;;;;;;4939557;28;20186;-43
2022/05/22 04:46:16;;;;;;;9.37;4.90;;;;;;;;;;4941513;28;20175;-42
2022/05/22 04:48:42;;;;;;;10.00;5.30;;;;;;;;;;4942779;28;20179;-42
2022/05/22 04:51:08;;;;;;;6.57;4.90;;;;;;;;;;4941009;28;20241;-42
2022/05/22 04:53:34;;;;;;;10.03;5.00;;;;;;;;;;4937246;28;20456;-42
2022/05/22 04:56:01;;;;;;;9.10;5.47;;;;;;;;;;4942232;28;20249;-43
2022/05/22 04:58:27;;;;;;;8.00;5.43;;;;;;;;;;4939406;28;20179;-41
2022/05/22 05:00:53;;;;;;;8.50;5.73;;;;;;;;;;4940640;28;21073;-42
2022/05/22 05:03:19;;;;;;;10.70;6.47;;;;;;;;;;4943358;28;20187;-41
2022/05/22 05:05:52;;;;;;;9.53;7.07;;;;;;;;;;4944357;28;20178;-42
2022/05/22 05:08:19;;;;;;;10.23;7.27;;;;;;;;;;4941182;28;20207;-43
2022/05/22 05:10:45;;;;;;;11.30;7.50;;;;;;;;;;4936463;28;20265;-43
2022/05/22 05:13:11;;;;;;;12.13;7.00;;;;;;;;;;4937066;28;20182;-43
2022/05/22 05:15:37;;;;;;;13.27;7.40;;;;;;;;;;4941499;28;20269;-42
2022/05/22 05:18:03;;;;;;;18.30;9.87;;;;;;;;;;4942234;28;20876;-43
2022/05/22 05:20:30;;;;;;;11.43;8.33;;;;;;;;;;4939228;28;20211;-43
2022/05/22 05:22:56;;;;;;;15.63;8.73;;;;;;;;;;4942411;28;20289;-43
2022/05/22 05:25:22;;;;;;;13.13;8.83;;;;;;;;;;4945489;28;20182;-42
2022/05/22 05:27:48;;;;;;;9.87;7.97;;;;;;;;;;4942877;28;20277;-43
2022/05/22 05:30:14;;;;;;;15.43;9.03;;;;;;;;;;4938740;28;20190;-42
2022/05/22 05:32:41;;;;;;;11.87;8.53;;;;;;;;;;4943786;28;20187;-43
2022/05/22 05:35:09;;;;;;;12.90;9.07;;;;;;;;;;4940313;28;20179;-42
2022/05/22 05:37:36;;;;;;;13.17;8.27;;;;;;;;;;4937534;28;20361;-43
2022/05/22 05:40:03;;;;;;;13.70;8.27;;;;;;;;;;4942120;28;20199;-43
2022/05/22 05:42:33;;;;;;;14.60;9.07;;;;;;;;;;4941782;28;20242;-42
2022/05/22 05:44:59;;;;;;;14.93;8.90;;;;;;;;;;4938759;28;20187;-43
2022/05/22 05:47:25;;;;;;;20.87;10.63;;;;;;;;;;4936231;28;20194;-43
2022/05/22 05:49:51;;;;;;;18.53;10.53;;;;;;;;;;4939809;28;20217;-43
2022/05/22 05:52:17;;;;;;;18.40;10.80;;;;;;;;;;4941942;28;20175;-43
2022/05/22 05:54:43;;;;;;;23.40;12.20;;;;;;;;;;4942361;28;21114;-43
2022/05/22 05:57:13;;;;;;;20.70;12.03;;;;;;;;;;4942366;28;20213;-42
2022/05/22 05:59:39;;;;;;;15.20;10.20;;;;;;;;;;4942803;28;20182;-42
2022/05/22 06:02:05;;;;;;;21.47;12.27;;;;;;;;;;4938526;28;20179;-42
2022/05/22 06:04:31;;;;;;;15.00;11.20;;;;;;;;;;4940072;28;20659;-43
2022/05/22 06:06:57;;;;;;;15.87;11.53;;;;;;;;;;4945550;28;20203;-43
2022/05/22 06:09:25;;;;;;;18.10;11.83;;;;;;;;;;4941746;28;20778;-41
2022/05/22 06:11:51;;;;;;;19.67;12.27;;;;;;;;;;4941220;28;20818;-42
2022/05/22 06:14:17;;;;;;;15.87;11.03;;;;;;;;;;4942027;28;20891;-43
2022/05/22 06:16:43;;;;;;;15.93;11.27;;;;;;;;;;4944581;28;20504;-43
2022/05/22 06:19:09;;;;;;;14.47;10.53;;;;;;;;;;4939885;28;20226;-43
2022/05/22 06:21:35;;;;;;;16.00;10.90;;;;;;;;;;4941616;28;20213;-43
2022/05/22 06:24:01;;;;;;;20.00;10.63;;;;;;;;;;4942372;28;20709;-43
2022/05/22 06:26:27;;;;;;;16.27;9.90;;;;;;;;;;4940757;28;20374;-43
2022/05/22 06:28:53;;;;;;;13.23;9.83;;;;;;;;;;4941914;28;20171;-42
2022/05/22 06:31:19;;;;;;;13.00;9.10;;;;;;;;;;4940204;28;20686;-42
2022/05/22 06:33:46;;;;;;;13.93;9.80;;;;;;;;;;4939402;28;20187;-43
2022/05/22 06:36:13;;;;;;;15.83;9.30;;;;;;;;;;4940877;28;20293;-44
2022/05/22 06:41:24;;;;;;;20.87;11.10;;;;;;;;;;4936435;28;20249;-43
2022/05/22 06:43:51;;;;;;;41.87;24.87;;;;;;;;;;4940131;28;20214;-43
2022/05/22 06:46:18;;;;;;;20.00;11.47;;;;;;;;;;4946875;28;20269;-43
2022/05/22 06:48:44;;;;;;;14.87;9.03;;;;;;;;;;4944703;28;20190;-43
2022/05/22 06:51:10;;;;;;;15.07;9.53;;;;;;;;;;4942044;28;20195;-43
2022/05/22 06:53:36;;;;;;;17.70;9.47;;;;;;;;;;4944485;28;20186;-43
2022/05/22 06:56:02;;;;;;;19.47;10.30;;;;;;;;;;4947365;28;20180;-43
2022/05/22 06:58:28;;;;;;;19.83;10.73;;;;;;;;;;4944546;28;20197;-43
2022/05/22 07:00:54;;;;;;;14.23;9.77;;;;;;;;;;4942105;28;20253;-43
2022/05/22 07:03:21;;;;;;;18.07;11.07;;;;;;;;;;4945873;28;20334;-43
2022/05/22 07:05:47;;;;;;;13.20;10.10;;;;;;;;;;4960234;28;20186;-42
2022/05/22 07:08:13;;;;;;;15.90;10.67;;;;;;;;;;4941546;28;20734;-43
2022/05/22 07:13:24;;;;;;;13.73;10.73;;;;;;;;;;4944809;28;20283;-44
2022/05/22 07:16:16;;;;;;;19.20;11.40;;;;;;;;;;4937426;28;20189;-44
2022/05/22 07:18:42;;;;;;;15.40;10.13;;;;;;;;;;4938350;28;20916;-44
2022/05/22 07:21:08;;;;;;;16.17;10.43;;;;;;;;;;4942290;28;20198;-44
2022/05/22 07:23:34;;;;;;;20.57;10.70;;;;;;;;;;4941955;28;20615;-43
2022/05/22 07:26:01;;;;;;;21.57;11.67;;;;;;;;;;4945489;28;20179;-43
2022/05/22 07:28:27;;;;;;;19.80;11.83;;;;;;;;;;4942895;28;20696;-43
2022/05/22 07:30:53;;;;;;;15.10;10.83;;;;;;;;;;4941104;28;20623;-44
2022/05/22 07:33:19;;;;;;;13.10;10.13;;;;;;;;;;4945852;28;20186;-44
2022/05/22 07:35:55;;;;;;;17.90;12.20;;;;;;;;;;4944355;28;20269;-43
2022/05/22 07:38:22;;;;;;;18.97;12.67;;;;;;;;;;4941025;28;20216;-44
2022/05/22 07:40:48;;;;;;;20.17;12.00;;;;;;;;;;4944215;28;20334;-43
2022/05/22 07:43:14;;;;;;;17.53;11.80;;;;;;;;;;4948607;28;20793;-44
2022/05/22 07:45:40;;;;;;;17.63;13.20;;;;;;;;;;4942697;28;20497;-44
2022/05/22 07:48:07;;;;;;;18.83;13.20;;;;;;;;;;4944545;28;20350;-43
2022/05/22 07:50:33;;;;;;;15.97;12.07;;;;;;;;;;4940813;28;21050;-43
2022/05/22 07:53:00;;;;;;;25.17;12.20;;;;;;;;;;4940843;28;20739;-43
2022/05/22 07:55:26;;;;;;;18.30;10.90;;;;;;;;;;4937857;28;20183;-44
2022/05/22 07:57:52;;;;;;;16.63;11.40;;;;;;;;;;4944486;28;20175;-43
2022/05/22 08:00:19;;;;;;;15.47;11.07;;;;;;;;;;4942309;28;20233;-44
2022/05/22 08:02:45;;;;;;;16.70;12.63;;;;;;;;;;4940803;28;20183;-44
2022/05/22 08:05:12;;;;;;;21.80;11.23;;;;;;;;;;4944420;28;20173;-43
2022/05/22 08:07:38;;;;;;;13.17;9.50;;;;;;;;;;4940694;28;20436;-43
2022/05/22 08:10:05;;;;;;;21.10;11.27;;;;;;;;;;4940292;28;20190;-43
2022/05/22 08:12:42;;;;;;;24.37;11.47;;;;;;;;;;4947610;28;20191;-44
2022/05/22 08:15:08;;;;;;;15.87;9.67;;;;;;;;;;4942685;28;20185;-43
2022/05/22 08:17:38;;;;;;;17.47;10.37;;;;;;;;;;4943054;28;20178;-43
2022/05/22 08:20:05;;;;;;;22.20;9.63;;;;;;;;;;4948273;28;20195;-42
2022/05/22 08:22:31;;;;;;;15.30;9.37;;;;;;;;;;4945926;28;20179;-43
2022/05/22 08:24:57;;;;;;;18.07;10.30;;;;;;;;;;4946009;28;20866;-41
2022/05/22 08:27:23;;;;;;;17.70;10.80;;;;;;;;;;4946727;28;20214;-42
2022/05/22 08:29:49;;;;;;;14.07;10.33;;;;;;;;;;4945104;28;20178;-42
2022/05/22 08:32:15;;;;;;;17.60;11.10;;;;;;;;;;4944202;28;20179;-43
2022/05/22 08:34:42;;;;;;;14.53;10.07;;;;;;;;;;4946190;28;20190;-43
2022/05/22 08:37:08;;;;;;;15.37;9.30;;;;;;;;;;4947217;28;20397;-43
2022/05/22 08:39:34;;;;;;;18.50;11.23;;;;;;;;;;4943801;28;20182;-41
2022/05/22 08:42:01;;;;;;;16.97;10.10;;;;;;;;;;4942322;28;20297;-43
2022/05/22 08:44:32;;;;;;;17.50;10.97;;;;;;;;;;4945855;28;20195;-44
2022/05/22 08:47:04;;;;;;;16.47;10.87;;;;;;;;;;4942545;28;20181;-43
2022/05/22 08:49:49;;;;;;;13.53;9.73;;;;;;;;;;4947695;28;20804;-44
2022/05/22 08:52:27;;;;;;;15.13;11.53;;;;;;;;;;4943093;28;20259;-43
2022/05/22 08:55:19;;;;;;;14.07;10.30;;;;;;;;;;4944982;28;20178;-44
2022/05/22 09:00:33;;;;;;;15.27;10.93;;;;;;;;;;4942027;28;21205;-44
2022/05/22 09:03:06;;;;;;;19.57;11.77;;;;;;;;;;4943402;28;20185;-43
2022/05/22 09:05:33;;;;;;;19.20;10.93;;;;;;;;;;4940593;28;20188;-43
2022/05/22 09:08:02;;;;;;;20.60;10.83;;;;;;;;;;4937382;28;20190;-43
2022/05/22 09:10:31;;;;;;;15.33;11.90;;;;;;;;;;4942756;28;20580;-44
2022/05/22 09:13:10;;;;;;;18.63;10.93;;;;;;;;;;4943414;28;20198;-44
2022/05/22 09:15:36;;;;;;;18.23;10.70;;;;;;;;;;4940383;28;20786;-44
2022/05/22 09:18:07;;;;;;;19.60;10.93;;;;;;;;;;4941862;28;20265;-43
2022/05/22 09:20:45;;;;;;;19.30;10.70;;;;;;;;;;4941138;28;20663;-44
2022/05/22 09:23:11;;;;;;;16.27;10.63;;;;;;;;;;4940750;28;20585;-43
2022/05/22 09:25:52;;;;;;;13.83;8.60;;;;;;;;;;4942125;28;20210;-44
2022/05/22 09:28:18;;;;;;;19.17;10.90;;;;;;;;;;4941666;28;20703;-44
2022/05/22 09:30:50;;;;;;;15.77;11.10;;;;;;;;;;4939343;28;20295;-44
2022/05/22 09:33:16;;;;;;;11.47;9.30;;;;;;;;;;4935034;28;20298;-44
2022/05/22 09:35:54;;;;;;;15.93;11.77;;;;;;;;;;4936378;28;20214;-43
2022/05/22 09:38:50;;;;;;;13.23;10.10;;;;;;;;;;4941263;28;20464;-44
2022/05/22 09:41:16;;;;;;;16.80;10.70;;;;;;;;;;4921896;28;20286;-42
2022/05/22 09:43:50;;;;;;;15.70;9.73;;;;;;;;;;4943444;28;20663;-44
2022/05/22 09:46:31;;;;;;;21.23;12.20;;;;;;;;;;4945111;28;20174;-44
2022/05/22 09:49:00;;;;;;;14.90;10.23;;;;;;;;;;4942628;28;20776;-44
2022/05/22 09:51:29;;;;;;;15.97;10.60;;;;;;;;;;4939963;28;20733;-44
2022/05/22 09:54:04;;;;;;;16.13;11.00;;;;;;;;;;4944414;28;20702;-44
2022/05/22 09:56:45;;;;;;;17.77;10.53;;;;;;;;;;4940211;28;20197;-44
2022/05/22 09:59:11;;;;;;;15.83;10.10;;;;;;;;;;4940431;28;20206;-43
2022/05/22 10:01:41;;;;;;;20.27;11.30;;;;;;;;;;4940305;28;20253;-43
2022/05/22 10:04:25;;;;;;;12.90;10.27;;;;;;;;;;4945125;28;20222;-44
2022/05/22 10:07:03;;;;;;;14.53;9.73;;;;;;;;;;4941271;28;20179;-44
2022/05/22 10:09:29;;;;;;;13.80;8.87;;;;;;;;;;4937984;28;20304;-44
2022/05/22 10:12:05;;;;;;;12.97;8.03;;;;;;;;;;4942300;28;20182;-43
2022/05/22 10:14:34;;;;;;;13.77;8.20;;;;;;;;;;4945297;28;20971;-44
2022/05/22 10:17:00;;;;;;;18.77;10.27;;;;;;;;;;4937663;28;20611;-44
2022/05/22 10:19:29;;;;;;;15.70;9.67;;;;;;;;;;4941426;28;20171;-44
2022/05/22 10:22:01;;;;;;;15.43;9.93;;;;;;;;;;4943941;28;20219;-44
2022/05/22 10:24:38;;;;;;;17.23;10.20;;;;;;;;;;4943083;28;20175;-43
2022/05/22 10:27:10;;;;;;;14.60;9.20;;;;;;;;;;4944614;28;20170;-43
2022/05/22 10:29:42;;;;;;;16.33;10.27;;;;;;;;;;4940738;28;20539;-44
2022/05/22 10:32:20;;;;;;;17.37;9.80;;;;;;;;;;4941714;28;20620;-43
2022/05/22 10:34:46;;;;;;;16.77;10.40;;;;;;;;;;4944055;28;20296;-43
2022/05/22 10:37:26;;;;;;;12.63;9.40;;;;;;;;;;4938499;28;20191;-43
2022/05/22 10:39:52;;;;;;;12.47;8.13;;;;;;;;;;4941661;28;20270;-43
2022/05/22 10:45:06;;;;;;;14.80;9.40;;;;;;;;;;4939617;28;20209;-43
2022/05/22 10:47:33;;;;;;;14.30;8.77;;;;;;;;;;4943383;28;20625;-44
2022/05/22 10:50:00;;;;;;;14.20;9.70;;;;;;;;;;4940502;28;20601;-44
2022/05/22 10:52:30;;;;;;;15.53;10.03;;;;;;;;;;4941584;28;20183;-44
2022/05/22 10:54:56;;;;;;;12.67;9.70;;;;;;;;;;4947887;28;20183;-44
2022/05/22 10:57:22;;;;;;;14.57;10.57;;;;;;;;;;4943860;28;20870;-43
2022/05/22 10:59:48;;;;;;;13.33;9.33;;;;;;;;;;4940519;28;20734;-43
2022/05/22 11:02:23;;;;;;;14.17;10.03;;;;;;;;;;4944435;28;20193;-43
2022/05/22 11:04:50;;;;;;;17.00;10.27;;;;;;;;;;4938951;28;20253;-44
2022/05/22 11:07:33;;;;;;;14.97;10.23;;;;;;;;;;4941190;28;20645;-44
2022/05/22 11:10:08;;;;;;;14.87;9.40;;;;;;;;;;4939869;28;20183;-44
2022/05/22 11:12:35;;;;;;;14.13;9.20;;;;;;;;;;4942449;28;20175;-44
2022/05/22 11:15:12;;;;;;;13.60;7.70;;;;;;;;;;4942634;28;20197;-44
2022/05/22 11:17:38;;;;;;;15.93;9.43;;;;;;;;;;4940226;28;20205;-42
2022/05/22 11:20:16;;;;;;;13.63;9.33;;;;;;;;;;4941936;28;20183;-44
2022/05/22 11:22:58;;;;;;;16.37;9.40;;;;;;;;;;4942942;28;20703;-44
2022/05/22 11:25:26;;;;;;;15.10;9.37;;;;;;;;;;4941516;28;20483;-43
2022/05/22 11:28:13;;;;;;;10.27;8.60;;;;;;;;;;4939575;28;20575;-44
2022/05/22 11:30:42;;;;;;;12.07;9.00;;;;;;;;;;4940916;28;21038;-44
2022/05/22 11:33:08;;;;;;;13.83;9.73;;;;;;;;;;4943993;28;20179;-44
2022/05/22 11:35:34;;;;;;;11.63;9.43;;;;;;;;;;4941767;28;20175;-44
2022/05/22 11:38:04;;;;;;;13.33;9.33;;;;;;;;;;4941534;28;20194;-44
2022/05/22 11:40:49;;;;;;;15.57;10.00;;;;;;;;;;4939719;28;20191;-43
2022/05/22 11:43:33;;;;;;;16.33;11.30;;;;;;;;;;4936302;28;20186;-44
2022/05/22 11:46:03;;;;;;;13.60;9.67;;;;;;;;;;4938263;28;20210;-42
2022/05/22 11:48:29;;;;;;;16.03;9.60;;;;;;;;;;4942846;28;20636;-43
2022/05/22 11:50:58;;;;;;;12.23;9.83;;;;;;;;;;4937688;28;20183;-44
2022/05/22 11:53:33;;;;;;;15.27;10.30;;;;;;;;;;4942180;28;20575;-43
2022/05/22 11:55:59;;;;;;;11.13;8.77;;;;;;;;;;4939620;28;20614;-43
2022/05/22 11:58:32;;;;;;;14.93;10.17;;;;;;;;;;4939150;28;20281;-44
2022/05/22 12:01:24;;;;;;;13.07;9.77;;;;;;;;;;4937224;28;20210;-43
2022/05/22 12:04:09;;;;;;;13.87;9.47;;;;;;;;;;4936555;28;20195;-44
2022/05/22 12:06:36;;;;;;;14.73;9.40;;;;;;;;;;4936694;28;20804;-44
2022/05/22 12:09:15;;;;;;;14.97;9.30;;;;;;;;;;4941878;28;20723;-43
2022/05/22 12:11:41;;;;;;;12.87;9.17;;;;;;;;;;4938786;28;20195;-44
2022/05/22 12:14:16;;;;;;;13.47;9.13;;;;;;;;;;4937683;28;20183;-43
2022/05/22 12:16:48;;;;;;;11.80;8.43;;;;;;;;;;4940127;28;20190;-44
2022/05/22 12:19:23;;;;;;;15.33;9.00;;;;;;;;;;4939380;28;20754;-43
2022/05/22 12:21:58;;;;;;;17.53;8.70;;;;;;;;;;4936044;28;20414;-44
2022/05/22 12:24:32;;;;;;;11.00;8.20;;;;;;;;;;4941975;28;20603;-44
2022/05/22 12:27:00;;;;;;;13.30;8.07;;;;;;;;;;4938734;28;20573;-43
2022/05/22 12:29:31;;;;;;;14.80;8.00;;;;;;;;;;4936670;28;20478;-44
2022/05/22 12:31:58;;;;;;;16.57;8.20;;;;;;;;;;4939941;28;20175;-43
2022/05/22 12:34:33;;;;;;;13.67;7.23;;;;;;;;;;4937581;28;20193;-44
2022/05/22 12:37:00;;;;;;;12.80;8.07;;;;;;;;;;4935893;28;20349;-45
2022/05/22 12:39:27;;;;;;;13.33;9.33;;;;;;;;;;4938762;28;20187;-45
2022/05/22 12:41:53;;;;;;;10.47;7.57;;;;;;;;;;4937112;28;20206;-44
2022/05/22 12:44:20;;;;;;;12.27;8.80;;;;;;;;;;4940018;28;20968;-44
2022/05/22 12:46:47;;;;;;;13.43;9.37;;;;;;;;;;4938106;28;20170;-44
2022/05/22 12:49:32;;;;;;;13.03;9.83;;;;;;;;;;4938562;28;20186;-43
2022/05/22 12:51:58;;;;;;;10.60;7.80;;;;;;;;;;4940692;28;20650;-43
2022/05/22 12:54:26;;;;;;;14.17;9.13;;;;;;;;;;4941835;28;20831;-44
2022/05/22 12:56:52;;;;;;;14.87;7.90;;;;;;;;;;4936764;28;20595;-44
2022/05/22 12:59:27;;;;;;;17.87;9.77;;;;;;;;;;4941673;28;20191;-43
2022/05/22 13:01:54;;;;;;;14.13;8.53;;;;;;;;;;4939921;28;20682;-44
2022/05/22 13:04:34;;;;;;;8.93;6.97;;;;;;;;;;4939528;28;20190;-44
2022/05/22 13:07:02;;;;;;;13.40;8.30;;;;;;;;;;4939292;28;21107;-44
2022/05/22 13:09:44;;;;;;;11.13;8.00;;;;;;;;;;4941090;28;20175;-43
2022/05/22 13:12:15;;;;;;;10.63;8.17;;;;;;;;;;4942028;28;20257;-43
2022/05/22 13:14:47;;;;;;;10.03;7.83;;;;;;;;;;4938330;28;21055;-44
2022/05/22 13:17:14;;;;;;;13.67;7.80;;;;;;;;;;4937972;28;20897;-43
2022/05/22 13:19:51;;;;;;;11.20;8.00;;;;;;;;;;4941783;28;20646;-44
2022/05/22 13:22:29;;;;;;;11.53;7.43;;;;;;;;;;4941962;28;20496;-44
2022/05/22 13:24:55;;;;;;;11.93;8.40;;;;;;;;;;4937479;28;20180;-43
2022/05/22 13:27:24;;;;;;;11.10;7.67;;;;;;;;;;4940676;28;20273;-43
2022/05/22 13:30:03;;;;;;;10.33;7.43;;;;;;;;;;4937975;28;20514;-44
2022/05/22 13:32:35;;;;;;;8.70;7.37;;;;;;;;;;4944581;28;20213;-44
2022/05/22 13:35:02;;;;;;;12.70;8.00;;;;;;;;;;4939711;28;20175;-43
2022/05/22 13:37:29;;;;;;;11.27;8.40;;;;;;;;;;4939782;28;20180;-43
2022/05/22 13:40:09;;;;;;;13.50;8.37;;;;;;;;;;4939083;28;20228;-43
2022/05/22 13:42:50;;;;;;;11.63;8.10;;;;;;;;;;4941774;28;20202;-44
2022/05/22 13:45:35;;;;;;;12.23;8.13;;;;;;;;;;4945232;28;20171;-44
2022/05/22 13:48:20;;;;;;;12.87;8.40;;;;;;;;;;4939667;28;20187;-44
2022/05/22 13:53:51;;;;;;;14.40;8.47;;;;;;;;;;4944332;28;20249;-44
2022/05/22 13:56:18;;;;;;;10.67;8.00;;;;;;;;;;4946445;28;20914;-44
2022/05/22 13:58:46;;;;;;;15.10;7.90;;;;;;;;;;4945369;28;20878;-44
2022/05/22 14:01:16;;;;;;;12.03;7.23;;;;;;;;;;4942524;28;20223;-43
2022/05/22 14:03:51;;;;;;;10.77;8.00;;;;;;;;;;4947743;28;20179;-43
2022/05/22 14:06:20;;;;;;;9.20;7.77;;;;;;;;;;4933712;28;20182;-43
2022/05/22 14:08:48;;;;;;;15.40;7.97;;;;;;;;;;4933120;28;20200;-43
2022/05/22 14:11:21;;;;;;;15.33;8.03;;;;;;;;;;4927318;28;20292;-43
2022/05/22 14:13:55;;;;;;;11.67;7.97;;;;;;;;;;4930442;28;20192;-42
2022/05/22 14:16:23;;;;;;;10.90;7.77;;;;;;;;;;4931304;28;20982;-43
2022/05/22 14:18:57;;;;;;;8.87;6.93;;;;;;;;;;4942499;28;20185;-43
2022/05/22 14:21:24;;;;;;;11.97;7.70;;;;;;;;;;4933545;28;20196;-43
2022/05/22 14:26:35;;;;;;;12.53;7.83;;;;;;;;;;4944806;28;20260;-43
2022/05/22 14:29:01;;;;;;;12.33;7.60;;;;;;;;;;4940316;28;20185;-43
2022/05/22 14:31:30;;;;;;;14.33;7.77;;;;;;;;;;4938179;28;20202;-44
2022/05/22 14:33:58;;;;;;;14.03;7.80;;;;;;;;;;4941684;28;20220;-43
2022/05/22 14:36:24;;;;;;;11.53;7.97;;;;;;;;;;4956508;28;20225;-43
2022/05/22 14:38:51;;;;;;;9.23;6.97;;;;;;;;;;4944162;28;20200;-43
2022/05/22 14:41:20;;;;;;;13.03;8.10;;;;;;;;;;4943870;28;20266;-43
2022/05/22 14:43:55;;;;;;;13.27;7.73;;;;;;;;;;4941210;28;20209;-43
2022/05/22 14:46:30;;;;;;;12.80;7.60;;;;;;;;;;4941079;28;20186;-43
2022/05/22 14:48:57;;;;;;;9.87;7.77;;;;;;;;;;4940281;28;20195;-43
2022/05/22 14:51:32;;;;;;;9.93;7.80;;;;;;;;;;4941481;28;20193;-43
2022/05/22 14:54:17;;;;;;;10.23;7.80;;;;;;;;;;4935103;28;20187;-43
2022/05/22 14:56:46;;;;;;;12.33;8.40;;;;;;;;;;4939807;28;20191;-44
2022/05/22 14:59:14;;;;;;;14.63;8.70;;;;;;;;;;4946471;28;20182;-44
2022/05/22 15:01:48;;;;;;;12.87;7.97;;;;;;;;;;4941299;28;20226;-43
2022/05/22 15:04:17;;;;;;;16.10;9.00;;;;;;;;;;4937815;28;20180;-43